Terminal Aerodrome Forecast
Issued by NWS

Home | Current Version | Previous Version | Text Only | Print | Product List | Glossary On
Versions: 1 2 3 4 5 6 7 8 9 10 11 12 13
000
FTUS42 TJSJ 021700
TAFJMZ
TAF
TJMZ 021727Z 0218/0318 27007KT P6SM VCTS BKN040CB
      TEMPO 0219/0221 5SM TSRA BKN030CB
     FM022100 09006KT P6SM SCT040
     FM031500 25007KT P6SM SCT030
      AMD NOT SKED 0223/0311=

USA.gov is the U.S. government's official web portal to all federal, state and local government web resources and services.